sensor_id;sensor_type;location;lat;lon;timestamp;pressure;altitude;pressure_sealevel;temperature;humidity
55486;BME280;49383;-25.924;28.194;2023-01-26T00:01:27;85262.88;;;23.89;37.16
55486;BME280;49383;-25.924;28.194;2023-01-26T00:03:52;85268.01;;;23.61;37.18
55486;BME280;49383;-25.924;28.194;2023-01-26T00:06:19;85264.69;;;23.55;37.27
55486;BME280;49383;-25.924;28.194;2023-01-26T00:08:44;85259.73;;;23.79;37.29
55486;BME280;49383;-25.924;28.194;2023-01-26T00:11:10;85263.05;;;24.05;37.25
55486;BME280;49383;-25.924;28.194;2023-01-26T00:13:35;85259.05;;;23.86;37.21
55486;BME280;49383;-25.924;28.194;2023-01-26T00:16:00;85256.33;;;23.54;37.27
55486;BME280;49383;-25.924;28.194;2023-01-26T00:18:26;85252.23;;;23.83;37.25
55486;BME280;49383;-25.924;28.194;2023-01-26T00:20:55;85255.69;;;23.79;37.28
55486;BME280;49383;-25.924;28.194;2023-01-26T00:23:17;85257.35;;;23.55;37.27
55486;BME280;49383;-25.924;28.194;2023-01-26T00:25:43;85260.34;;;23.77;37.33
55486;BME280;49383;-25.924;28.194;2023-01-26T00:28:09;85260.55;;;23.46;37.39
55486;BME280;49383;-25.924;28.194;2023-01-26T00:30:35;85262.76;;;23.50;37.35
55486;BME280;49383;-25.924;28.194;2023-01-26T00:33:01;85262.16;;;24.01;37.31
55486;BME280;49383;-25.924;28.194;2023-01-26T00:35:26;85265.85;;;23.99;37.34
55486;BME280;49383;-25.924;28.194;2023-01-26T00:37:52;85260.98;;;23.54;37.29
55486;BME280;49383;-25.924;28.194;2023-01-26T00:40:17;85261.83;;;23.75;37.35
55486;BME280;49383;-25.924;28.194;2023-01-26T00:42:43;85261.01;;;23.49;37.35
55486;BME280;49383;-25.924;28.194;2023-01-26T00:45:10;85260.50;;;23.93;37.40
55486;BME280;49383;-25.924;28.194;2023-01-26T00:47:35;85257.40;;;23.48;37.35
55486;BME280;49383;-25.924;28.194;2023-01-26T00:50:01;85250.34;;;23.46;37.39
55486;BME280;49383;-25.924;28.194;2023-01-26T00:52:26;85251.10;;;23.51;37.36
55486;BME280;49383;-25.924;28.194;2023-01-26T00:54:52;85249.68;;;23.89;37.45
55486;BME280;49383;-25.924;28.194;2023-01-26T00:57:18;85247.14;;;23.68;37.46
55486;BME280;49383;-25.924;28.194;2023-01-26T00:59:43;85242.73;;;23.46;37.40
55486;BME280;49383;-25.924;28.194;2023-01-26T01:02:09;85243.38;;;23.74;37.40
55486;BME280;49383;-25.924;28.194;2023-01-26T01:04:35;85245.08;;;23.44;37.45
55486;BME280;49383;-25.924;28.194;2023-01-26T01:07:01;85247.84;;;23.75;37.39
55486;BME280;49383;-25.924;28.194;2023-01-26T01:09:27;85249.38;;;23.49;37.38
55486;BME280;49383;-25.924;28.194;2023-01-26T01:11:52;85248.88;;;23.72;37.43
55486;BME280;49383;-25.924;28.194;2023-01-26T01:14:18;85252.17;;;23.51;37.36
55486;BME280;49383;-25.924;28.194;2023-01-26T01:16:44;85247.88;;;23.78;37.35
55486;BME280;49383;-25.924;28.194;2023-01-26T01:19:14;85248.13;;;23.79;37.34
55486;BME280;49383;-25.924;28.194;2023-01-26T01:21:36;85246.00;;;23.47;37.41
55486;BME280;49383;-25.924;28.194;2023-01-26T01:24:02;85244.06;;;23.46;37.44
55486;BME280;49383;-25.924;28.194;2023-01-26T01:26:27;85244.43;;;23.46;37.42
55486;BME280;49383;-25.924;28.194;2023-01-26T01:28:54;85241.43;;;23.67;37.48
55486;BME280;49383;-25.924;28.194;2023-01-26T01:31:19;85245.57;;;23.72;37.44
55486;BME280;49383;-25.924;28.194;2023-01-26T01:33:44;85245.31;;;23.67;37.49
55486;BME280;49383;-25.924;28.194;2023-01-26T01:36:12;85248.65;;;23.99;37.38
55486;BME280;49383;-25.924;28.194;2023-01-26T01:38:36;85250.77;;;23.48;37.40
55486;BME280;49383;-25.924;28.194;2023-01-26T01:41:02;85255.32;;;23.73;37.41
55486;BME280;49383;-25.924;28.194;2023-01-26T01:43:28;85260.66;;;23.92;37.45
55486;BME280;49383;-25.924;28.194;2023-01-26T01:45:54;85264.31;;;23.88;37.50
55486;BME280;49383;-25.924;28.194;2023-01-26T01:48:23;85264.99;;;23.67;37.49
55486;BME280;49383;-25.924;28.194;2023-01-26T01:50:45;85263.95;;;23.68;37.49
55486;BME280;49383;-25.924;28.194;2023-01-26T01:53:16;85265.43;;;23.90;37.50
55486;BME280;49383;-25.924;28.194;2023-01-26T01:55:36;85264.71;;;23.89;37.52
55486;BME280;49383;-25.924;28.194;2023-01-26T01:58:02;85268.08;;;23.65;37.53
55486;BME280;49383;-25.924;28.194;2023-01-26T02:00:28;85268.78;;;23.34;37.59
55486;BME280;49383;-25.924;28.194;2023-01-26T02:02:57;85267.35;;;23.40;37.53
55486;BME280;49383;-25.924;28.194;2023-01-26T02:05:26;85268.86;;;23.35;37.58
55486;BME280;49383;-25.924;28.194;2023-01-26T02:07:45;85267.25;;;23.37;37.55
55486;BME280;49383;-25.924;28.194;2023-01-26T02:10:11;85269.53;;;23.64;37.54
55486;BME280;49383;-25.924;28.194;2023-01-26T02:12:37;85273.03;;;23.89;37.50
55486;BME280;49383;-25.924;28.194;2023-01-26T02:15:03;85275.20;;;23.63;37.55
55486;BME280;49383;-25.924;28.194;2023-01-26T02:17:28;85276.51;;;23.59;37.62
55486;BME280;49383;-25.924;28.194;2023-01-26T02:20:00;85272.13;;;23.66;37.50
55486;BME280;49383;-25.924;28.194;2023-01-26T02:22:26;85267.98;;;23.81;37.61
55486;BME280;49383;-25.924;28.194;2023-01-26T02:24:45;85264.23;;;23.35;37.57
55486;BME280;49383;-25.924;28.194;2023-01-26T02:27:11;85267.97;;;23.57;37.62
55486;BME280;49383;-25.924;28.194;2023-01-26T02:29:36;85272.67;;;23.74;37.69
55486;BME280;49383;-25.924;28.194;2023-01-26T02:32:02;85278.44;;;23.55;37.67
55486;BME280;49383;-25.924;28.194;2023-01-26T02:34:28;85281.77;;;23.79;37.64
55486;BME280;49383;-25.924;28.194;2023-01-26T02:36:57;85289.27;;;23.64;37.55
55486;BME280;49383;-25.924;28.194;2023-01-26T02:39:26;85289.88;;;23.81;37.61
55486;BME280;49383;-25.924;28.194;2023-01-26T02:41:46;85286.81;;;23.62;37.56
55486;BME280;49383;-25.924;28.194;2023-01-26T02:44:11;85287.12;;;23.28;37.66
55486;BME280;49383;-25.924;28.194;2023-01-26T02:46:37;85283.80;;;23.59;37.58
55486;BME280;49383;-25.924;28.194;2023-01-26T02:49:02;85283.98;;;23.29;37.63
55486;BME280;49383;-25.924;28.194;2023-01-26T02:51:28;85278.93;;;23.56;37.62
55486;BME280;49383;-25.924;28.194;2023-01-26T02:53:53;85283.90;;;23.28;37.63
55486;BME280;49383;-25.924;28.194;2023-01-26T02:56:19;85282.77;;;23.72;37.68
55486;BME280;49383;-25.924;28.194;2023-01-26T02:58:45;85284.34;;;23.51;37.67
55486;BME280;49383;-25.924;28.194;2023-01-26T03:01:11;85281.56;;;23.54;37.62
55486;BME280;49383;-25.924;28.194;2023-01-26T03:03:37;85283.66;;;23.55;37.62
55486;BME280;49383;-25.924;28.194;2023-01-26T03:06:03;85285.33;;;23.29;37.60
55486;BME280;49383;-25.924;28.194;2023-01-26T03:08:28;85287.47;;;23.60;37.54
55486;BME280;49383;-25.924;28.194;2023-01-26T03:10:54;85291.89;;;23.53;37.63
55486;BME280;49383;-25.924;28.194;2023-01-26T03:13:20;85291.58;;;23.71;37.69
55486;BME280;49383;-25.924;28.194;2023-01-26T03:15:45;85298.89;;;23.47;37.71
55486;BME280;49383;-25.924;28.194;2023-01-26T03:18:13;85302.66;;;23.77;37.59
55486;BME280;49383;-25.924;28.194;2023-01-26T03:20:37;85303.74;;;23.54;37.60
55486;BME280;49383;-25.924;28.194;2023-01-26T03:23:02;85305.02;;;23.71;37.67
55486;BME280;49383;-25.924;28.194;2023-01-26T03:25:28;85303.59;;;23.54;37.61
55486;BME280;49383;-25.924;28.194;2023-01-26T03:27:54;85301.96;;;23.52;37.62
55486;BME280;49383;-25.924;28.194;2023-01-26T03:30:20;85305.34;;;23.67;37.70
55486;BME280;49383;-25.924;28.194;2023-01-26T03:32:46;85315.05;;;23.10;37.81
55486;BME280;49383;-25.924;28.194;2023-01-26T03:35:12;85315.64;;;23.58;37.82
55486;BME280;49383;-25.924;28.194;2023-01-26T03:37:38;85317.74;;;23.61;37.79
55486;BME280;49383;-25.924;28.194;2023-01-26T03:40:04;85322.02;;;23.64;37.74
55486;BME280;49383;-25.924;28.194;2023-01-26T03:42:29;85324.68;;;23.15;37.74
55486;BME280;49383;-25.924;28.194;2023-01-26T03:44:54;85325.37;;;23.43;37.71
55486;BME280;49383;-25.924;28.194;2023-01-26T03:47:20;85325.11;;;23.65;37.70
55486;BME280;49383;-25.924;28.194;2023-01-26T03:49:46;85323.03;;;23.69;37.64
55486;BME280;49383;-25.924;28.194;2023-01-26T03:52:12;85325.41;;;23.46;37.64
55486;BME280;49383;-25.924;28.194;2023-01-26T03:54:38;85326.35;;;23.57;37.77
55486;BME280;49383;-25.924;28.194;2023-01-26T03:57:04;85327.46;;;23.63;37.69
55486;BME280;49383;-25.924;28.194;2023-01-26T03:59:30;85325.65;;;23.41;37.68
55486;BME280;49383;-25.924;28.194;2023-01-26T04:01:55;85326.11;;;23.41;37.65
55486;BME280;49383;-25.924;28.194;2023-01-26T04:04:21;85329.81;;;23.37;37.70
55486;BME280;49383;-25.924;28.194;2023-01-26T04:06:48;85334.08;;;23.36;37.72
55486;BME280;49383;-25.924;28.194;2023-01-26T04:09:13;85330.77;;;23.62;37.65
55486;BME280;49383;-25.924;28.194;2023-01-26T04:11:39;85330.00;;;23.44;37.59
55486;BME280;49383;-25.924;28.194;2023-01-26T04:14:03;85334.12;;;23.47;37.55
55486;BME280;49383;-25.924;28.194;2023-01-26T04:16:29;85338.98;;;23.52;37.46
55486;BME280;49383;-25.924;28.194;2023-01-26T04:18:55;85337.37;;;23.66;37.57
55486;BME280;49383;-25.924;28.194;2023-01-26T04:21:20;85343.44;;;23.66;37.56
55486;BME280;49383;-25.924;28.194;2023-01-26T04:23:45;85341.09;;;23.46;37.53
55486;BME280;49383;-25.924;28.194;2023-01-26T04:26:11;85338.37;;;23.66;37.57
55486;BME280;49383;-25.924;28.194;2023-01-26T04:28:37;85341.33;;;23.68;37.55
55486;BME280;49383;-25.924;28.194;2023-01-26T04:31:02;85344.02;;;23.52;37.48
55486;BME280;49383;-25.924;28.194;2023-01-26T04:33:28;85349.08;;;23.82;37.40
55486;BME280;49383;-25.924;28.194;2023-01-26T04:35:54;85349.73;;;23.56;37.48
55486;BME280;49383;-25.924;28.194;2023-01-26T04:38:20;85357.59;;;23.36;37.43
55486;BME280;49383;-25.924;28.194;2023-01-26T04:40:45;85361.03;;;23.43;37.35
55486;BME280;49383;-25.924;28.194;2023-01-26T04:43:10;85360.63;;;23.76;37.32
55486;BME280;49383;-25.924;28.194;2023-01-26T04:45:36;85357.30;;;23.85;37.51
55486;BME280;49383;-25.924;28.194;2023-01-26T04:48:02;85358.48;;;23.39;37.50
55486;BME280;49383;-25.924;28.194;2023-01-26T04:50:28;85355.87;;;23.80;37.38
55486;BME280;49383;-25.924;28.194;2023-01-26T04:52:54;85356.63;;;23.80;37.41
55486;BME280;49383;-25.924;28.194;2023-01-26T04:55:20;85357.99;;;23.54;37.41
55486;BME280;49383;-25.924;28.194;2023-01-26T04:57:45;85363.58;;;23.87;37.37
55486;BME280;49383;-25.924;28.194;2023-01-26T05:00:12;85364.17;;;23.83;37.46
55486;BME280;49383;-25.924;28.194;2023-01-26T05:02:37;85364.04;;;23.87;37.42
55486;BME280;49383;-25.924;28.194;2023-01-26T05:05:03;85364.56;;;23.54;37.51
55486;BME280;49383;-25.924;28.194;2023-01-26T05:07:29;85366.40;;;23.99;37.30
55486;BME280;49383;-25.924;28.194;2023-01-26T05:09:55;85369.40;;;23.74;37.28
55486;BME280;49383;-25.924;28.194;2023-01-26T05:12:20;85367.70;;;23.81;37.21
55486;BME280;49383;-25.924;28.194;2023-01-26T05:14:46;85370.11;;;23.75;37.28
55486;BME280;49383;-25.924;28.194;2023-01-26T05:17:12;85371.82;;;24.02;37.28
55486;BME280;49383;-25.924;28.194;2023-01-26T05:19:38;85371.13;;;23.71;37.36
55486;BME280;49383;-25.924;28.194;2023-01-26T05:22:04;85372.94;;;23.67;37.39
55486;BME280;49383;-25.924;28.194;2023-01-26T05:24:30;85372.83;;;23.65;37.40
55486;BME280;49383;-25.924;28.194;2023-01-26T05:26:55;85371.02;;;23.70;37.34
55486;BME280;49383;-25.924;28.194;2023-01-26T05:29:20;85366.45;;;23.77;37.27
55486;BME280;49383;-25.924;28.194;2023-01-26T05:31:46;85363.78;;;24.04;37.27
55486;BME280;49383;-25.924;28.194;2023-01-26T05:34:12;85363.04;;;24.23;37.33
55486;BME280;49383;-25.924;28.194;2023-01-26T05:36:38;85361.39;;;23.69;37.39
55486;BME280;49383;-25.924;28.194;2023-01-26T05:39:04;85360.12;;;23.72;37.36
55486;BME280;49383;-25.924;28.194;2023-01-26T05:41:30;85359.56;;;24.03;37.32
55486;BME280;49383;-25.924;28.194;2023-01-26T05:43:55;85359.91;;;23.97;37.41
55486;BME280;49383;-25.924;28.194;2023-01-26T05:46:21;85361.74;;;23.96;37.42
55486;BME280;49383;-25.924;28.194;2023-01-26T05:48:47;85366.26;;;23.68;37.46
55486;BME280;49383;-25.924;28.194;2023-01-26T05:51:13;85365.80;;;23.72;37.45
55486;BME280;49383;-25.924;28.194;2023-01-26T05:53:39;85365.47;;;23.99;37.52
55486;BME280;49383;-25.924;28.194;2023-01-26T05:56:05;85366.03;;;23.98;37.58
55486;BME280;49383;-25.924;28.194;2023-01-26T05:58:30;85369.35;;;24.18;37.62
55486;BME280;49383;-25.924;28.194;2023-01-26T06:00:55;85369.94;;;23.75;37.60
55486;BME280;49383;-25.924;28.194;2023-01-26T06:03:21;85370.76;;;24.00;37.35
55486;BME280;49383;-25.924;28.194;2023-01-26T06:05:52;85369.82;;;24.02;37.07
55486;BME280;49383;-25.924;28.194;2023-01-26T06:08:13;85364.94;;;24.35;36.74
55486;BME280;49383;-25.924;28.194;2023-01-26T06:10:38;85358.68;;;24.46;36.39
55486;BME280;49383;-25.924;28.194;2023-01-26T06:13:04;85356.49;;;24.80;35.98
55486;BME280;49383;-25.924;28.194;2023-01-26T06:15:30;85355.31;;;25.03;35.74
55486;BME280;49383;-25.924;28.194;2023-01-26T06:17:56;85352.42;;;24.71;35.50
55486;BME280;49383;-25.924;28.194;2023-01-26T06:20:22;85353.30;;;25.52;35.68
55486;BME280;49383;-25.924;28.194;2023-01-26T06:22:47;85354.21;;;25.15;35.64
55486;BME280;49383;-25.924;28.194;2023-01-26T06:25:13;85351.49;;;25.22;35.23
55486;BME280;49383;-25.924;28.194;2023-01-26T06:27:39;85350.37;;;25.35;35.37
55486;BME280;49383;-25.924;28.194;2023-01-26T06:30:06;85345.23;;;25.08;35.38
55486;BME280;49383;-25.924;28.194;2023-01-26T06:32:30;85344.56;;;25.29;35.47
55486;BME280;49383;-25.924;28.194;2023-01-26T06:34:56;85343.48;;;25.12;35.43
55486;BME280;49383;-25.924;28.194;2023-01-26T06:37:22;85342.63;;;25.48;35.02
55486;BME280;49383;-25.924;28.194;2023-01-26T06:39:48;85339.11;;;25.80;34.68
55486;BME280;49383;-25.924;28.194;2023-01-26T06:42:14;85330.39;;;25.44;34.78
55486;BME280;49383;-25.924;28.194;2023-01-26T06:44:39;85328.59;;;25.70;34.55
55486;BME280;49383;-25.924;28.194;2023-01-26T06:47:05;85328.73;;;25.91;34.33
55486;BME280;49383;-25.924;28.194;2023-01-26T06:49:31;85324.71;;;25.94;34.24
55486;BME280;49383;-25.924;28.194;2023-01-26T06:51:58;85327.54;;;25.80;34.65
55486;BME280;49383;-25.924;28.194;2023-01-26T06:54:22;85323.13;;;25.59;34.87
55486;BME280;49383;-25.924;28.194;2023-01-26T06:56:48;85333.06;;;24.99;35.30
55486;BME280;49383;-25.924;28.194;2023-01-26T06:59:14;85328.72;;;25.21;35.59
55486;BME280;49383;-25.924;28.194;2023-01-26T07:01:43;85327.87;;;24.82;35.73
55486;BME280;49383;-25.924;28.194;2023-01-26T07:04:05;85328.65;;;24.93;35.91
55486;BME280;49383;-25.924;28.194;2023-01-26T07:06:31;85325.26;;;24.70;36.19
55486;BME280;49383;-25.924;28.194;2023-01-26T07:08:57;85328.44;;;24.72;36.15
55486;BME280;49383;-25.924;28.194;2023-01-26T07:11:23;85331.60;;;25.03;36.07
55486;BME280;49383;-25.924;28.194;2023-01-26T07:13:49;85331.66;;;24.81;36.05
55486;BME280;49383;-25.924;28.194;2023-01-26T07:16:16;85329.31;;;25.16;36.16
55486;BME280;49383;-25.924;28.194;2023-01-26T07:18:40;85329.34;;;25.00;36.12
55486;BME280;49383;-25.924;28.194;2023-01-26T07:21:08;85324.98;;;24.91;36.20
55486;BME280;49383;-25.924;28.194;2023-01-26T07:23:32;85321.61;;;24.91;35.95
55486;BME280;49383;-25.924;28.194;2023-01-26T07:25:58;85319.77;;;24.72;35.88
55486;BME280;49383;-25.924;28.194;2023-01-26T07:28:24;85320.24;;;25.19;35.66
55486;BME280;49383;-25.924;28.194;2023-01-26T07:30:49;85321.04;;;25.27;35.27
55486;BME280;49383;-25.924;28.194;2023-01-26T07:33:15;85314.31;;;25.58;35.18
55486;BME280;49383;-25.924;28.194;2023-01-26T07:35:41;85308.95;;;25.10;35.45
55486;BME280;49383;-25.924;28.194;2023-01-26T07:38:07;85300.47;;;25.49;34.99
55486;BME280;49383;-25.924;28.194;2023-01-26T07:40:34;85298.67;;;25.74;34.76
55486;BME280;49383;-25.924;28.194;2023-01-26T07:42:58;85300.47;;;25.86;34.40
55486;BME280;49383;-25.924;28.194;2023-01-26T07:45:24;85305.59;;;26.09;34.14
55486;BME280;49383;-25.924;28.194;2023-01-26T07:47:50;85298.22;;;26.16;34.04
55486;BME280;49383;-25.924;28.194;2023-01-26T07:50:16;85291.38;;;26.17;34.06
55486;BME280;49383;-25.924;28.194;2023-01-26T07:52:41;85290.06;;;26.38;33.79
55486;BME280;49383;-25.924;28.194;2023-01-26T07:55:07;85294.51;;;26.04;33.62
55486;BME280;49383;-25.924;28.194;2023-01-26T07:57:34;85291.36;;;26.55;33.59
55486;BME280;49383;-25.924;28.194;2023-01-26T07:59:59;85292.73;;;26.09;33.57
55486;BME280;49383;-25.924;28.194;2023-01-26T08:02:24;85290.89;;;26.16;33.51
55486;BME280;49383;-25.924;28.194;2023-01-26T08:04:50;85293.00;;;26.53;33.35
55486;BME280;49383;-25.924;28.194;2023-01-26T08:07:16;85289.23;;;26.25;33.41
55486;BME280;49383;-25.924;28.194;2023-01-26T08:09:42;85287.92;;;26.32;33.32
55486;BME280;49383;-25.924;28.194;2023-01-26T08:12:07;85288.84;;;26.28;33.76
55486;BME280;49383;-25.924;28.194;2023-01-26T08:14:33;85284.04;;;26.46;33.13
55486;BME280;49383;-25.924;28.194;2023-01-26T08:16:59;85281.96;;;26.43;33.17
55486;BME280;49383;-25.924;28.194;2023-01-26T08:19:25;85281.73;;;26.59;33.00
55486;BME280;49383;-25.924;28.194;2023-01-26T08:21:50;85281.86;;;26.84;32.93
55486;BME280;49383;-25.924;28.194;2023-01-26T08:24:16;85280.87;;;26.67;32.85
55486;BME280;49383;-25.924;28.194;2023-01-26T08:26:42;85283.91;;;26.56;32.95
55486;BME280;49383;-25.924;28.194;2023-01-26T08:29:08;85283.22;;;26.59;32.95
55486;BME280;49383;-25.924;28.194;2023-01-26T08:31:34;85283.82;;;26.60;32.90
55486;BME280;49383;-25.924;28.194;2023-01-26T08:33:59;85274.21;;;26.92;33.07
55486;BME280;49383;-25.924;28.194;2023-01-26T08:36:25;85276.19;;;26.22;33.36
55486;BME280;49383;-25.924;28.194;2023-01-26T08:38:51;85270.42;;;26.72;33.25
55486;BME280;49383;-25.924;28.194;2023-01-26T08:41:17;85277.25;;;26.60;33.36
55486;BME280;49383;-25.924;28.194;2023-01-26T08:43:42;85268.34;;;26.35;33.65
55486;BME280;49383;-25.924;28.194;2023-01-26T08:46:09;85265.11;;;26.08;33.67
55486;BME280;49383;-25.924;28.194;2023-01-26T08:48:34;85264.70;;;26.22;33.75
55486;BME280;49383;-25.924;28.194;2023-01-26T08:51:01;85260.97;;;25.91;34.10
55486;BME280;49383;-25.924;28.194;2023-01-26T08:53:26;85255.79;;;25.77;34.24
55486;BME280;49383;-25.924;28.194;2023-01-26T08:55:52;85256.30;;;26.05;34.20
55486;BME280;49383;-25.924;28.194;2023-01-26T08:58:17;85254.47;;;25.90;34.33
55486;BME280;49383;-25.924;28.194;2023-01-26T09:00:43;85248.39;;;26.09;34.42
55486;BME280;49383;-25.924;28.194;2023-01-26T09:03:09;85249.72;;;26.01;34.49
55486;BME280;49383;-25.924;28.194;2023-01-26T09:05:37;85249.14;;;25.54;34.47
55486;BME280;49383;-25.924;28.194;2023-01-26T09:08:00;85240.84;;;25.71;34.53
55486;BME280;49383;-25.924;28.194;2023-01-26T09:10:26;85244.21;;;25.52;34.49
55486;BME280;49383;-25.924;28.194;2023-01-26T09:12:51;85241.30;;;25.59;34.38
55486;BME280;49383;-25.924;28.194;2023-01-26T09:15:17;85233.39;;;25.91;34.27
55486;BME280;49383;-25.924;28.194;2023-01-26T09:17:43;85233.04;;;25.77;34.38
55486;BME280;49383;-25.924;28.194;2023-01-26T09:20:10;85235.20;;;25.73;34.43
55486;BME280;49383;-25.924;28.194;2023-01-26T09:22:35;85236.63;;;25.41;34.53
55486;BME280;49383;-25.924;28.194;2023-01-26T09:25:01;85229.27;;;25.38;34.56
55486;BME280;49383;-25.924;28.194;2023-01-26T09:27:26;85230.35;;;25.87;34.52
55486;BME280;49383;-25.924;28.194;2023-01-26T09:29:52;85227.73;;;25.51;34.63
55486;BME280;49383;-25.924;28.194;2023-01-26T09:32:18;85221.53;;;25.72;34.68
55486;BME280;49383;-25.924;28.194;2023-01-26T09:34:44;85222.93;;;25.78;34.62
55486;BME280;49383;-25.924;28.194;2023-01-26T09:37:09;85220.87;;;25.61;34.78
55486;BME280;49383;-25.924;28.194;2023-01-26T09:39:35;85216.58;;;25.47;34.91
55486;BME280;49383;-25.924;28.194;2023-01-26T09:44:30;85213.46;;;25.42;34.92
55486;BME280;49383;-25.924;28.194;2023-01-26T09:47:02;85202.55;;;25.40;34.97
55486;BME280;49383;-25.924;28.194;2023-01-26T09:49:22;85197.76;;;25.41;34.91
55486;BME280;49383;-25.924;28.194;2023-01-26T09:51:48;85195.01;;;25.38;34.92
55486;BME280;49383;-25.924;28.194;2023-01-26T09:54:18;85190.44;;;25.32;34.94
55486;BME280;49383;-25.924;28.194;2023-01-26T09:56:35;85184.09;;;25.28;34.98
55486;BME280;49383;-25.924;28.194;2023-01-26T09:59:05;85181.47;;;25.28;34.95
55486;BME280;49383;-25.924;28.194;2023-01-26T10:01:32;85181.66;;;25.28;34.92
55486;BME280;49383;-25.924;28.194;2023-01-26T10:03:59;85176.27;;;25.24;34.95
55486;BME280;49383;-25.924;28.194;2023-01-26T10:06:23;85172.70;;;25.44;34.95
55486;BME280;49383;-25.924;28.194;2023-01-26T10:08:45;85175.03;;;25.26;34.91
55486;BME280;49383;-25.924;28.194;2023-01-26T10:11:16;85175.29;;;25.26;34.86
55486;BME280;49383;-25.924;28.194;2023-01-26T10:13:36;85163.85;;;25.20;34.90
55486;BME280;49383;-25.924;28.194;2023-01-26T10:16:06;85157.29;;;25.27;34.79
55486;BME280;49383;-25.924;28.194;2023-01-26T10:18:31;85159.39;;;25.29;34.74
55486;BME280;49383;-25.924;28.194;2023-01-26T10:20:55;85161.15;;;25.26;34.77
55486;BME280;49383;-25.924;28.194;2023-01-26T10:23:23;85156.69;;;25.66;34.79
55486;BME280;49383;-25.924;28.194;2023-01-26T10:25:46;85149.67;;;25.20;34.78
55486;BME280;49383;-25.924;28.194;2023-01-26T10:28:13;85143.13;;;25.54;34.90
55486;BME280;49383;-25.924;28.194;2023-01-26T10:30:38;85144.10;;;25.36;34.83
55486;BME280;49383;-25.924;28.194;2023-01-26T10:33:05;85143.51;;;25.33;34.87
55486;BME280;49383;-25.924;28.194;2023-01-26T10:35:29;85136.41;;;25.15;34.77
55486;BME280;49383;-25.924;28.194;2023-01-26T10:37:54;85143.37;;;25.59;34.75
55486;BME280;49383;-25.924;28.194;2023-01-26T10:40:20;85141.50;;;25.19;34.68
55486;BME280;49383;-25.924;28.194;2023-01-26T10:42:54;85133.84;;;25.19;34.63
55486;BME280;49383;-25.924;28.194;2023-01-26T10:47:37;85129.41;;;25.15;34.65
55486;BME280;49383;-25.924;28.194;2023-01-26T10:52:29;85123.48;;;25.13;34.64
55486;BME280;49383;-25.924;28.194;2023-01-26T10:57:27;85120.30;;;25.13;34.54
55486;BME280;49383;-25.924;28.194;2023-01-26T10:59:53;85108.01;;;25.09;34.58
55486;BME280;49383;-25.924;28.194;2023-01-26T11:02:20;85114.18;;;25.17;34.48
55486;BME280;49383;-25.924;28.194;2023-01-26T11:04:38;85117.34;;;25.13;34.48
55486;BME280;49383;-25.924;28.194;2023-01-26T11:09:30;85107.46;;;25.11;34.44
55486;BME280;49383;-25.924;28.194;2023-01-26T11:11:59;85105.81;;;25.08;34.47
55486;BME280;49383;-25.924;28.194;2023-01-26T11:14:21;85106.67;;;25.18;34.32
55486;BME280;49383;-25.924;28.194;2023-01-26T11:16:52;85106.12;;;25.19;34.25
55486;BME280;49383;-25.924;28.194;2023-01-26T11:19:15;85104.03;;;25.23;34.20
55486;BME280;49383;-25.924;28.194;2023-01-26T11:21:42;85097.35;;;24.93;34.18
55486;BME280;49383;-25.924;28.194;2023-01-26T11:24:10;85098.94;;;25.19;34.19
55486;BME280;49383;-25.924;28.194;2023-01-26T11:26:46;85101.96;;;25.13;34.25
55486;BME280;49383;-25.924;28.194;2023-01-26T11:29:09;85100.44;;;25.16;34.20
55486;BME280;49383;-25.924;28.194;2023-01-26T11:31:28;85097.65;;;25.12;34.22
55486;BME280;49383;-25.924;28.194;2023-01-26T11:33:54;85090.60;;;25.10;34.22
55486;BME280;49383;-25.924;28.194;2023-01-26T11:36:21;85093.32;;;25.10;34.18
55486;BME280;49383;-25.924;28.194;2023-01-26T11:38:50;85091.87;;;25.08;34.17
55486;BME280;49383;-25.924;28.194;2023-01-26T11:41:17;85089.59;;;25.17;34.06
55486;BME280;49383;-25.924;28.194;2023-01-26T11:46:06;85084.89;;;25.18;33.95
55486;BME280;49383;-25.924;28.194;2023-01-26T11:48:28;85081.69;;;25.15;33.97
55486;BME280;49383;-25.924;28.194;2023-01-26T11:50:55;85076.61;;;25.15;33.92
55486;BME280;49383;-25.924;28.194;2023-01-26T11:53:26;85072.35;;;25.15;33.88
55486;BME280;49383;-25.924;28.194;2023-01-26T11:55:50;85065.44;;;25.14;33.90
55486;BME280;49383;-25.924;28.194;2023-01-26T11:58:18;85052.74;;;25.27;33.69
55486;BME280;49383;-25.924;28.194;2023-01-26T12:00:39;85053.40;;;25.53;33.63
55486;BME280;49383;-25.924;28.194;2023-01-26T12:03:02;85055.39;;;25.47;33.62
55486;BME280;49383;-25.924;28.194;2023-01-26T12:05:28;85052.28;;;24.99;33.63
55486;BME280;49383;-25.924;28.194;2023-01-26T12:07:54;85049.77;;;25.21;33.66
55486;BME280;49383;-25.924;28.194;2023-01-26T12:10:17;85050.15;;;25.16;33.67
55486;BME280;49383;-25.924;28.194;2023-01-26T12:12:45;85040.74;;;25.20;33.59
55486;BME280;49383;-25.924;28.194;2023-01-26T12:15:12;85036.81;;;25.11;33.69
55486;BME280;49383;-25.924;28.194;2023-01-26T12:17:39;85032.88;;;25.10;33.67
55486;BME280;49383;-25.924;28.194;2023-01-26T12:20:04;85028.96;;;25.12;33.59
55486;BME280;49383;-25.924;28.194;2023-01-26T12:22:28;85029.81;;;25.44;33.51
55486;BME280;49383;-25.924;28.194;2023-01-26T12:24:53;85031.68;;;25.09;33.63
55486;BME280;49383;-25.924;28.194;2023-01-26T12:27:18;85024.15;;;25.19;33.52
55486;BME280;49383;-25.924;28.194;2023-01-26T12:29:47;85022.18;;;25.13;33.52
55486;BME280;49383;-25.924;28.194;2023-01-26T12:32:10;85017.06;;;25.10;33.54
55486;BME280;49383;-25.924;28.194;2023-01-26T12:34:33;85010.59;;;25.04;33.59
55486;BME280;49383;-25.924;28.194;2023-01-26T12:37:09;85000.37;;;25.06;33.55
55486;BME280;49383;-25.924;28.194;2023-01-26T12:39:29;85001.64;;;25.11;33.49
55486;BME280;49383;-25.924;28.194;2023-01-26T12:41:59;85000.28;;;25.10;33.47
55486;BME280;49383;-25.924;28.194;2023-01-26T12:44:25;84996.25;;;25.05;33.52
55486;BME280;49383;-25.924;28.194;2023-01-26T12:46:45;84996.11;;;25.12;33.41